Coffeyville, Kansas
Current Conditions -  °F | °C
As of 1:52 PM on Wednesday 26 Nov 2014 (Local Time) from KCFV Reporting Station
Broken Clouds Broken Clouds  
Wind Chill: 51°   Ceiling: 6000
Heat Index: 51°   Visibility: 10mi
Dew Point: 25°   Wind: 25mph
Humidity: 36%   Direction: 310°NW
Pressure: 30.12"   Gusts: 33mph
Location:  37.03°N, 95.62°W
Report Text: KCFV 261952Z AUTO 31022G29KT 10SM BKN060 11/M04 A3012 RMK AO2 PK WND 28031/1926 SLP203 T01061039
Loading
Personal Weather Stations






























Interactive Weather Map New forecast layout! Learn more

10-Day Weather Forecast

Advertisements
Track Severe Weather on mobile